Дата Пункты Температура Давл., мм. Влажн., % Ветер Погодные явления
Воздуха Воды Направл. Скорость
17.08.18 09:00 Одесса 29.0 25.0 756 31 Ю-З 2 21 ЧАС
17.08.18 06:00 Одесса 33.0 25.0 756 24 С 0 18 ЧАСОВ
17.08.18 03:00 Одесса 33.0 25.0 757 30 Ю-В 2 15 ЧАСОВ
17.08.18 12:00 Одесса 30.0 25.0 757 42 С-В 1 12 ЧАСОВ
17.08.18 09:00 Одесса 28.0 25.0 757 53 С 1 09 ЧАСОВ
17.08.18 06:00 Одесса 23.0 25.0 756 57 С-З 1 06 ЧАСОВ
17.08.18 03:00 Одесса 26.0 25.0 756 41 С-З 3 03 ЧАСА
16.08.18 09:00 Одесса 27.0 25.0 756 41 З 1 21 ЧАС
16.08.18 06:00 Одесса 33.0 25.0 756 22 С 0 18 ЧАСОВ
16.08.18 03:00 Одесса 33.0 25.0 756 21 В 1 15 ЧАСОВ
16.08.18 12:00 Одесса 29.0 24.0 757 48 С-В 2 12 ЧАСОВ
16.08.18 09:00 Одесса 28.0 24.0 757 35 С-З 1 09 ЧАСОВ
16.08.18 06:00 Одесса 24.0 25.0 757 42 С-З 1 06 ЧАСОВ
16.08.18 03:00 Одесса 24.0 25.0 757 45 С-З 2 03 ЧАСА
15.08.18 09:00 Одесса 24.0 25.0 757 51 З 1 21 ЧАС
15.08.18 06:00 Одесса 29.0 24.0 757 34 С 0 18 ЧАСОВ
15.08.18 03:00 Одесса 29.0 24.0 758 47 Ю-В 1 15 ЧАСОВ
15.08.18 12:00 Одесса 27.0 24.0 758 59 В 1 12 ЧАСОВ
15.08.18 09:00 Одесса 25.0 24.0 758 58 С 0 09 ЧАСОВ
15.08.18 06:00 Одесса 20.0 23.0 757 62 С 0 06 ЧАСОВ
Количество строк
1 2 3 4 5 6 7 8 9 10
Page 1 of 394